Time;durP1;ratioP1;P1;durP2;ratioP2;P2;SDS_P1;SDS_P2;PMS_P1;PMS_P2;Temp;Humidity;BMP_temperature;BMP_pressure;BME280_temperature;BME280_humidity;BME280_pressure;Samples;Min_cycle;Max_cycle;Signal;HPM_P1;HPM_P2
2023/03/17 00:00:17;;;;;;;;;;;;;;;20.40;33.36;101349.48;101522;1312;61438;-84
2023/03/17 00:02:44;;;;;;;;;;;;;;;20.41;33.30;101349.81;101557;1311;61486;-85
2023/03/17 00:05:23;;;;;;;;;;;;;;;20.40;33.28;101350.01;101521;1311;61448;-84
2023/03/17 00:07:50;;;;;;;;;;;;;;;20.40;33.24;101351.61;101497;1314;61710;-85
2023/03/17 00:10:16;;;;;;;;;;;;;;;20.41;33.30;101352.13;101439;1312;72509;-85
2023/03/17 00:12:42;;;;;;;;;;;;;;;20.41;33.31;101351.77;101352;1317;61443;-85
2023/03/17 00:15:09;;;;;;;;;;;;;;;20.40;33.29;101354.47;101426;1312;61470;-85
2023/03/17 00:17:36;;;;;;;;;;;;;;;20.40;33.29;101352.33;101585;1311;61444;-84
2023/03/17 00:20:01;;;;;;;;;;;;;;;20.40;33.27;101351.61;101605;1314;61400;-85
2023/03/17 00:22:27;;;;;;;;;;;;;;;20.40;33.29;101352.15;101367;1311;61491;-85
2023/03/17 00:24:54;;;;;;;;;;;;;;;20.40;33.26;101354.29;101541;1311;62558;-84
2023/03/17 00:27:19;;;;;;;;;;;;;;;20.40;33.25;101351.09;101569;1316;61433;-84
2023/03/17 00:29:45;;;;;;;;;;;;;;;20.40;33.29;101352.67;101531;1315;61519;-84
2023/03/17 00:32:15;;;;;;;;;;;;;;;20.40;33.42;101352.33;101552;1310;61600;-85
2023/03/17 00:34:40;;;;;;;;;;;;;;;20.40;33.29;101352.69;101533;1310;61391;-85
2023/03/17 00:37:08;;;;;;;;;;;;;;;20.40;33.30;101349.27;101555;1314;61444;-85
2023/03/17 00:39:35;;;;;;;;;;;;;;;20.41;33.28;101350.88;101607;1312;63061;-84
2023/03/17 00:42:01;;;;;;;;;;;;;;;20.41;33.29;101348.89;101598;1314;75688;-85
2023/03/17 00:44:27;;;;;;;;;;;;;;;20.41;33.26;101350.50;101470;1314;62571;-85
2023/03/17 00:46:52;;;;;;;;;;;;;;;20.41;33.29;101349.24;101523;1312;61441;-85
2023/03/17 00:49:19;;;;;;;;;;;;;;;20.41;33.23;101352.10;101599;1314;61480;-85
2023/03/17 00:51:45;;;;;;;;;;;;;;;20.41;33.28;101356.23;101592;1310;62211;-85
2023/03/17 00:54:11;;;;;;;;;;;;;;;20.41;33.26;101358.20;101603;1311;61470;-85
2023/03/17 00:56:37;;;;;;;;;;;;;;;20.41;33.43;101357.30;101600;1314;61519;-85
2023/03/17 00:59:03;;;;;;;;;;;;;;;20.41;33.29;101361.94;101480;1314;61333;-84
2023/03/17 01:01:29;;;;;;;;;;;;;;;20.41;33.34;101363.70;101453;1314;62633;-84
2023/03/17 01:03:56;;;;;;;;;;;;;;;20.41;33.29;101363.02;101393;1314;61791;-84
2023/03/17 01:06:21;;;;;;;;;;;;;;;20.41;33.18;101365.88;101481;1314;61500;-84
2023/03/17 01:08:48;;;;;;;;;;;;;;;20.41;33.19;101367.66;101457;1311;62484;-84
2023/03/17 01:11:16;;;;;;;;;;;;;;;20.41;33.38;101366.25;101486;1318;61515;-84
2023/03/17 01:13:42;;;;;;;;;;;;;;;20.41;33.30;101365.71;101488;1311;74618;-84
2023/03/17 01:16:08;;;;;;;;;;;;;;;20.41;33.24;101363.75;101439;1311;61645;-84
2023/03/17 01:18:34;;;;;;;;;;;;;;;20.41;33.36;101366.25;101508;1314;61382;-84
2023/03/17 01:21:00;;;;;;;;;;;;;;;20.41;33.24;101364.80;101463;1314;61522;-85
2023/03/17 01:23:26;;;;;;;;;;;;;;;20.41;33.23;101367.48;101429;1318;61387;-84
2023/03/17 01:25:51;;;;;;;;;;;;;;;20.41;33.32;101370.53;101494;1311;61411;-84
2023/03/17 01:28:17;;;;;;;;;;;;;;;20.41;33.35;101372.85;101505;1311;61461;-84
2023/03/17 01:30:42;;;;;;;;;;;;;;;20.40;33.34;101373.23;101584;1314;61390;-85
2023/03/17 01:33:09;;;;;;;;;;;;;;;20.41;33.38;101375.90;101534;1314;62114;-85
2023/03/17 01:35:35;;;;;;;;;;;;;;;20.41;33.39;101381.07;101531;1311;61434;-85
2023/03/17 01:38:02;;;;;;;;;;;;;;;20.41;33.28;101383.22;101481;1316;61890;-85
2023/03/17 01:40:32;;;;;;;;;;;;;;;20.41;33.24;101384.10;101494;1309;61448;-84
2023/03/17 01:43:07;;;;;;;;;;;;;;;20.41;33.30;101383.05;101440;1311;72632;-85
2023/03/17 01:45:51;;;;;;;;;;;;;;;20.41;33.32;101384.83;101457;1314;73979;-85
2023/03/17 01:48:16;;;;;;;;;;;;;;;20.41;33.32;101386.61;101520;1314;61350;-84
2023/03/17 01:50:42;;;;;;;;;;;;;;;20.41;33.31;101390.36;101316;1317;61710;-84
2023/03/17 01:53:08;;;;;;;;;;;;;;;20.41;33.31;101392.33;101516;1315;61936;-85
2023/03/17 01:55:34;;;;;;;;;;;;;;;20.41;33.31;101393.58;101528;1315;61432;-85
2023/03/17 01:58:01;;;;;;;;;;;;;;;20.41;33.45;101396.29;101559;1314;61509;-84
2023/03/17 02:00:28;;;;;;;;;;;;;;;20.41;33.31;101396.98;101528;1311;61449;-84
2023/03/17 02:02:54;;;;;;;;;;;;;;;20.41;33.35;101399.84;101378;1315;61311;-84
2023/03/17 02:05:20;;;;;;;;;;;;;;;20.41;33.35;101400.37;101433;1314;61815;-85
2023/03/17 02:07:46;;;;;;;;;;;;;;;20.41;33.31;101398.77;101391;1312;61375;-85
2023/03/17 02:10:12;;;;;;;;;;;;;;;20.41;33.31;101401.45;101530;1314;61497;-85
2023/03/17 02:12:37;;;;;;;;;;;;;;;20.41;33.15;101405.55;101439;1312;62429;-85
2023/03/17 02:15:04;;;;;;;;;;;;;;;20.41;33.27;101403.23;101496;1314;62704;-85
2023/03/17 02:17:30;;;;;;;;;;;;;;;20.41;33.23;101399.50;101505;1314;61413;-85
2023/03/17 02:20:07;;;;;;;;;;;;;;;20.41;33.28;101401.09;101455;1314;62622;-85
2023/03/17 02:22:33;;;;;;;;;;;;;;;20.41;33.20;101402.71;101437;1314;62602;-84
2023/03/17 02:24:59;;;;;;;;;;;;;;;20.41;33.26;101402.53;101496;1314;61470;-84
2023/03/17 02:27:26;;;;;;;;;;;;;;;20.41;33.31;101408.94;101420;1314;61396;-85
2023/03/17 02:29:52;;;;;;;;;;;;;;;20.42;33.30;101413.94;101570;1312;62503;-85
2023/03/17 02:32:17;;;;;;;;;;;;;;;20.41;33.35;101411.98;101522;1313;61477;-85
2023/03/17 02:34:44;;;;;;;;;;;;;;;20.41;33.24;101415.59;101513;1314;61518;-85
2023/03/17 02:37:09;;;;;;;;;;;;;;;20.41;33.34;101420.39;101562;1311;63022;-85
2023/03/17 02:39:35;;;;;;;;;;;;;;;20.41;33.22;101418.80;101533;1314;62636;-85
2023/03/17 02:42:00;;;;;;;;;;;;;;;20.41;33.33;101422.20;101490;1311;61371;-85
2023/03/17 02:44:26;;;;;;;;;;;;;;;20.41;33.29;101423.43;101458;1314;61531;-85
2023/03/17 02:46:52;;;;;;;;;;;;;;;20.41;33.24;101431.30;101576;1314;62192;-85
2023/03/17 02:49:18;;;;;;;;;;;;;;;20.41;33.18;101433.27;101515;1312;61693;-85
2023/03/17 02:51:44;;;;;;;;;;;;;;;20.41;33.26;101437.58;101536;1314;61467;-85
2023/03/17 02:54:10;;;;;;;;;;;;;;;20.41;33.18;101437.38;101612;1314;62608;-85
2023/03/17 02:56:35;;;;;;;;;;;;;;;20.41;33.25;101436.11;101654;1311;62585;-85
2023/03/17 02:59:01;;;;;;;;;;;;;;;20.41;33.24;101439.17;102136;1315;73547;-85
2023/03/17 03:01:28;;;;;;;;;;;;;;;20.41;33.26;101442.02;101918;1314;61578;-84
2023/03/17 03:03:53;;;;;;;;;;;;;;;20.41;33.22;101439.50;101532;1314;61798;-84
2023/03/17 03:06:19;;;;;;;;;;;;;;;20.41;33.25;101441.82;101565;1314;61474;-85
2023/03/17 03:08:45;;;;;;;;;;;;;;;20.42;33.29;101441.80;101464;1311;61432;-84
2023/03/17 03:11:11;;;;;;;;;;;;;;;20.42;33.27;101443.21;101511;1312;61755;-85
2023/03/17 03:13:37;;;;;;;;;;;;;;;20.42;33.20;101444.67;101551;1317;62055;-85
2023/03/17 03:16:03;;;;;;;;;;;;;;;20.41;33.22;101450.41;101534;1315;61337;-85
2023/03/17 03:18:29;;;;;;;;;;;;;;;20.41;33.25;101450.60;101527;1312;62607;-85
2023/03/17 03:20:55;;;;;;;;;;;;;;;20.42;33.18;101455.23;101467;1318;72485;-84
2023/03/17 03:23:20;;;;;;;;;;;;;;;20.42;33.18;101452.19;101474;1315;61467;-85
2023/03/17 03:25:46;;;;;;;;;;;;;;;20.42;33.15;101452.55;101512;1314;61474;-85
2023/03/17 03:28:11;;;;;;;;;;;;;;;20.42;33.10;101451.11;101497;1312;62945;-85
2023/03/17 03:30:37;;;;;;;;;;;;;;;20.41;33.27;101448.98;101559;1314;61400;-85
2023/03/17 03:33:04;;;;;;;;;;;;;;;20.41;33.12;101451.67;101455;1315;61525;-85
2023/03/17 03:35:29;;;;;;;;;;;;;;;20.41;33.23;101455.27;101231;1318;61352;-85
2023/03/17 03:37:55;;;;;;;;;;;;;;;20.41;33.28;101459.55;101503;1310;61989;-85
2023/03/17 03:40:21;;;;;;;;;;;;;;;20.41;33.20;101455.26;101410;1318;61540;-85
2023/03/17 03:42:47;;;;;;;;;;;;;;;20.41;33.19;101457.75;101459;1311;61481;-85
2023/03/17 03:45:12;;;;;;;;;;;;;;;20.41;33.23;101458.67;101446;1314;61695;-85
2023/03/17 03:47:38;;;;;;;;;;;;;;;20.41;33.09;101461.89;101430;1314;61515;-85
2023/03/17 03:50:04;;;;;;;;;;;;;;;20.41;33.16;101467.06;101452;1311;62047;-86
2023/03/17 03:52:29;;;;;;;;;;;;;;;20.40;33.17;101468.71;101400;1318;62547;-85
2023/03/17 03:54:55;;;;;;;;;;;;;;;20.41;33.19;101471.02;101488;1317;61448;-85
2023/03/17 03:57:20;;;;;;;;;;;;;;;20.40;33.23;101471.41;101617;1314;61503;-85
2023/03/17 03:59:45;;;;;;;;;;;;;;;20.40;33.06;101472.64;101684;1313;61473;-85
2023/03/17 04:02:11;;;;;;;;;;;;;;;20.40;33.22;101476.05;101742;1313;61393;-85
2023/03/17 04:04:37;;;;;;;;;;;;;;;20.40;33.15;101474.61;101608;1314;61509;-85
2023/03/17 04:07:03;;;;;;;;;;;;;;;20.41;33.19;101477.45;101460;1321;61410;-84
2023/03/17 04:09:29;;;;;;;;;;;;;;;20.40;33.03;101479.62;101510;1314;61442;-84
2023/03/17 04:11:55;;;;;;;;;;;;;;;20.41;33.21;101478.35;101492;1312;61532;-85
2023/03/17 04:14:22;;;;;;;;;;;;;;;20.40;33.07;101481.57;101535;1317;61928;-85
2023/03/17 04:16:48;;;;;;;;;;;;;;;20.40;33.23;101479.80;101445;1314;62038;-85
2023/03/17 04:19:14;;;;;;;;;;;;;;;20.40;33.12;101482.14;101363;1317;62620;-85
2023/03/17 04:21:39;;;;;;;;;;;;;;;20.40;33.24;101485.19;101493;1314;61506;-85
2023/03/17 04:24:05;;;;;;;;;;;;;;;20.40;33.11;101487.31;101449;1312;61700;-85
2023/03/17 04:26:31;;;;;;;;;;;;;;;20.40;33.03;101490.36;101086;1314;62387;-85
2023/03/17 04:28:57;;;;;;;;;;;;;;;20.40;33.07;101496.24;101439;1317;61380;-85
2023/03/17 04:31:23;;;;;;;;;;;;;;;20.39;32.99;101502.38;101435;1312;62112;-85
2023/03/17 04:33:49;;;;;;;;;;;;;;;20.39;33.14;101504.71;101551;1314;61464;-85
2023/03/17 04:36:18;;;;;;;;;;;;;;;20.39;33.02;101505.45;101630;1311;61449;-85
2023/03/17 04:38:44;;;;;;;;;;;;;;;20.38;32.99;101506.88;101730;1314;61358;-85
2023/03/17 04:41:10;;;;;;;;;;;;;;;20.39;33.04;101510.81;101665;1314;63192;-85
2023/03/17 04:43:35;;;;;;;;;;;;;;;20.38;32.94;101511.20;101651;1312;61486;-85
2023/03/17 04:46:01;;;;;;;;;;;;;;;20.39;32.98;101510.80;101548;1312;61438;-85
2023/03/17 04:48:27;;;;;;;;;;;;;;;20.39;32.94;101512.59;101467;1314;61452;-85
2023/03/17 04:50:52;;;;;;;;;;;;;;;20.39;32.86;101514.93;101519;1313;73261;-85
2023/03/17 04:53:18;;;;;;;;;;;;;;;20.39;32.89;101517.61;101671;1315;62614;-85
2023/03/17 04:55:44;;;;;;;;;;;;;;;20.38;32.88;101517.82;101729;1311;61452;-85
2023/03/17 04:58:09;;;;;;;;;;;;;;;20.37;32.84;101517.85;101583;1311;61785;-85
2023/03/17 05:00:37;;;;;;;;;;;;;;;20.36;32.87;101519.54;101642;1312;61432;-85
2023/03/17 05:03:05;;;;;;;;;;;;;;;20.34;32.80;101517.36;101602;1314;61946;-85
2023/03/17 05:05:31;;;;;;;;;;;;;;;20.31;32.85;101519.66;101612;1315;61922;-85
2023/03/17 05:07:57;;;;;;;;;;;;;;;20.29;32.86;101525.50;101680;1312;61333;-84
2023/03/17 05:10:23;;;;;;;;;;;;;;;20.26;32.86;101528.34;101515;1317;61799;-85
2023/03/17 05:12:48;;;;;;;;;;;;;;;20.21;32.90;101532.36;101580;1314;61429;-84
2023/03/17 05:15:14;;;;;;;;;;;;;;;20.16;32.82;101533.74;101561;1315;61442;-84
2023/03/17 05:17:39;;;;;;;;;;;;;;;20.10;32.78;101536.39;101583;1312;62603;-84
2023/03/17 05:20:07;;;;;;;;;;;;;;;20.04;32.75;101542.63;101528;1314;62662;-85
2023/03/17 05:22:32;;;;;;;;;;;;;;;19.98;32.78;101546.12;101570;1318;72509;-85
2023/03/17 05:25:00;;;;;;;;;;;;;;;19.96;32.76;101545.02;101573;1312;61534;-84
2023/03/17 05:27:25;;;;;;;;;;;;;;;19.94;32.81;101543.48;101563;1311;61457;-85
2023/03/17 05:29:51;;;;;;;;;;;;;;;19.94;32.76;101550.84;101560;1314;62599;-85
2023/03/17 05:32:17;;;;;;;;;;;;;;;19.95;32.81;101557.04;101498;1314;61445;-85
2023/03/17 05:34:44;;;;;;;;;;;;;;;19.95;32.71;101560.44;101612;1312;62492;-85
2023/03/17 05:37:09;;;;;;;;;;;;;;;19.93;32.77;101559.81;101710;1314;61989;-85
2023/03/17 05:39:35;;;;;;;;;;;;;;;19.90;32.75;101561.73;101832;1310;62587;-86
2023/03/17 05:42:00;;;;;;;;;;;;;;;19.87;32.72;101562.45;102073;1314;61378;-85
2023/03/17 05:44:26;;;;;;;;;;;;;;;19.84;32.73;101565.83;102185;1314;61403;-87
2023/03/17 05:47:15;;;;;;;;;;;;;;;19.81;32.72;101565.09;102628;1310;61457;31
2023/03/17 05:49:40;;;;;;;;;;;;;;;19.78;32.61;101573.46;103122;1308;61333;-82
2023/03/17 05:52:06;;;;;;;;;;;;;;;19.74;32.73;101575.80;103221;1309;61423;-82
2023/03/17 05:54:32;;;;;;;;;;;;;;;19.71;32.87;101577.55;103246;1308;61362;-81
2023/03/17 05:56:57;;;;;;;;;;;;;;;19.69;32.77;101585.15;103456;1309;61390;-82
2023/03/17 05:59:24;;;;;;;;;;;;;;;19.65;32.67;101588.27;103809;1308;61799;-83
2023/03/17 06:01:50;;;;;;;;;;;;;;;19.61;32.59;101588.82;103646;1308;61552;-82
2023/03/17 06:04:16;;;;;;;;;;;;;;;19.61;32.57;101594.18;103286;1308;61442;-83
2023/03/17 06:06:41;;;;;;;;;;;;;;;19.60;32.61;101598.16;103263;1309;61445;-83
2023/03/17 06:09:07;;;;;;;;;;;;;;;19.60;32.75;101601.88;103252;1314;60649;-82
2023/03/17 06:11:32;;;;;;;;;;;;;;;19.62;32.60;101603.61;103673;1308;59117;-83
2023/03/17 06:13:58;;;;;;;;;;;;;;;19.63;32.56;101608.35;103657;1309;61324;-83
2023/03/17 06:16:27;;;;;;;;;;;;;;;19.65;32.61;101612.37;103578;1309;61387;-83
2023/03/17 06:18:53;;;;;;;;;;;;;;;19.66;32.50;101619.77;102976;1310;72618;-82
2023/03/17 06:21:19;;;;;;;;;;;;;;;19.67;32.61;101620.13;103315;1309;61574;-83
2023/03/17 06:23:45;;;;;;;;;;;;;;;19.68;32.44;101623.50;103287;1311;61358;-82
2023/03/17 06:26:11;;;;;;;;;;;;;;;19.68;32.45;101626.16;103012;1311;61265;-83
2023/03/17 06:28:39;;;;;;;;;;;;;;;19.64;32.33;101627.06;102695;1311;61728;-83
2023/03/17 06:31:04;;;;;;;;;;;;;;;19.62;32.43;101630.90;102920;1311;61313;-83
2023/03/17 06:33:30;;;;;;;;;;;;;;;19.61;32.17;101633.63;102845;1310;61739;-83
2023/03/17 06:35:57;;;;;;;;;;;;;;;19.62;32.13;101637.55;103055;1309;60194;-83
2023/03/17 06:38:23;;;;;;;;;;;;;;;19.62;32.09;101638.23;103090;1308;59643;-83
2023/03/17 06:40:49;;;;;;;;;;;;;;;19.63;32.10;101645.51;103572;1312;61412;-84
2023/03/17 06:43:16;;;;;;;;;;;;;;;19.63;32.02;101640.52;103126;1311;61908;-83
2023/03/17 06:45:42;;;;;;;;;;;;;;;19.63;31.99;101640.67;103003;1309;61258;-83
2023/03/17 06:48:07;;;;;;;;;;;;;;;19.63;31.91;101642.63;102899;1314;61419;-84
2023/03/17 06:50:32;;;;;;;;;;;;;;;19.63;31.85;101640.83;102853;1311;72612;-83
2023/03/17 06:52:58;;;;;;;;;;;;;;;19.65;31.73;101636.29;103147;1314;61330;-83
2023/03/17 06:55:24;;;;;;;;;;;;;;;19.57;31.55;101638.68;102990;1311;62512;-84
2023/03/17 06:57:49;;;;;;;;;;;;;;;19.46;31.78;101641.70;102982;1311;61345;-84
2023/03/17 07:00:15;;;;;;;;;;;;;;;19.49;31.95;101644.44;102840;1311;61183;-82
2023/03/17 07:02:41;;;;;;;;;;;;;;;19.50;31.99;101643.27;102198;1314;1461634;-82
2023/03/17 07:05:07;;;;;;;;;;;;;;;19.51;32.03;101644.67;102955;1314;75579;-83
2023/03/17 07:07:34;;;;;;;;;;;;;;;19.53;32.01;101647.42;103109;1314;61396;-83
2023/03/17 07:10:01;;;;;;;;;;;;;;;19.56;31.91;101648.52;102693;1311;61377;-83
2023/03/17 07:12:27;;;;;;;;;;;;;;;19.60;31.99;101650.29;103116;1310;60367;-83
2023/03/17 07:14:53;;;;;;;;;;;;;;;19.65;31.85;101650.90;102850;1310;61367;-82
2023/03/17 07:17:19;;;;;;;;;;;;;;;19.70;31.73;101650.34;103108;1310;61351;-82
2023/03/17 07:19:45;;;;;;;;;;;;;;;19.74;31.70;101647.80;102920;1312;61524;-83
2023/03/17 07:22:10;;;;;;;;;;;;;;;19.79;31.63;101645.20;102818;1315;61355;-83
2023/03/17 07:24:36;;;;;;;;;;;;;;;19.84;31.50;101642.84;102897;1312;61413;-83
2023/03/17 07:27:02;;;;;;;;;;;;;;;19.88;31.58;101641.20;103009;1311;61352;-83
2023/03/17 07:29:28;;;;;;;;;;;;;;;19.93;31.42;101646.66;102665;1312;61834;-83
2023/03/17 07:31:54;;;;;;;;;;;;;;;19.98;31.42;101648.38;103132;1312;61371;-83
2023/03/17 07:34:21;;;;;;;;;;;;;;;20.01;31.38;101646.23;103292;1310;61262;-83
2023/03/17 07:36:47;;;;;;;;;;;;;;;20.05;31.43;101651.73;102897;1317;61372;-83
2023/03/17 07:39:13;;;;;;;;;;;;;;;20.08;31.34;101649.80;102977;1312;61403;-83
2023/03/17 07:41:38;;;;;;;;;;;;;;;20.11;31.29;101647.29;102934;1311;61438;-84
2023/03/17 07:44:05;;;;;;;;;;;;;;;20.14;31.33;101648.05;103126;1311;61378;-82
2023/03/17 07:46:31;;;;;;;;;;;;;;;20.16;31.18;101643.27;103255;1309;61502;-82
2023/03/17 07:48:57;;;;;;;;;;;;;;;20.19;31.25;101643.84;103212;1310;61530;-83
2023/03/17 07:51:26;;;;;;;;;;;;;;;20.21;31.25;101641.42;103226;1314;61327;-83
2023/03/17 07:53:52;;;;;;;;;;;;;;;20.21;30.80;101636.58;103425;1311;61253;-85
2023/03/17 07:56:17;;;;;;;;;;;;;;;20.07;30.65;101639.48;103223;1309;59830;-83
2023/03/17 07:58:43;;;;;;;;;;;;;;;19.98;30.83;101638.71;103377;1311;60679;-83
2023/03/17 08:01:09;;;;;;;;;;;;;;;19.93;30.80;101645.23;103146;1311;61371;-87
2023/03/17 08:03:35;;;;;;;;;;;;;;;19.91;30.95;101643.71;103118;1311;61396;-83
2023/03/17 08:06:02;;;;;;;;;;;;;;;19.90;31.07;101643.59;103066;1311;60627;-84
2023/03/17 08:08:28;;;;;;;;;;;;;;;19.87;31.15;101644.65;103402;1315;62470;-82
2023/03/17 08:11:00;;;;;;;;;;;;;;;19.86;31.20;101646.84;103480;1314;61327;-82
2023/03/17 08:13:28;;;;;;;;;;;;;;;19.83;31.20;101649.14;104446;1314;60238;-82
2023/03/17 08:15:54;;;;;;;;;;;;;;;19.81;31.18;101649.05;104380;1311;74764;-82
2023/03/17 08:18:19;;;;;;;;;;;;;;;19.77;31.14;101654.41;104339;1311;59131;-83
2023/03/17 08:20:45;;;;;;;;;;;;;;;19.74;31.16;101652.77;104449;1308;59650;-83
2023/03/17 08:23:10;;;;;;;;;;;;;;;19.74;31.14;101648.15;104414;1309;59532;-82
2023/03/17 08:25:36;;;;;;;;;;;;;;;19.73;31.18;101649.06;103423;1311;61336;-81
2023/03/17 08:28:03;;;;;;;;;;;;;;;19.73;31.16;101646.23;103088;1314;74707;-83
2023/03/17 08:30:29;;;;;;;;;;;;;;;19.73;31.01;101647.11;103262;1311;75611;-82
2023/03/17 08:32:55;;;;;;;;;;;;;;;19.74;30.96;101644.02;103300;1313;60015;-83
2023/03/17 08:35:21;;;;;;;;;;;;;;;19.78;30.87;101644.39;103360;1312;61342;-82
2023/03/17 08:37:46;;;;;;;;;;;;;;;19.83;30.90;101643.60;103440;1312;59733;-82
2023/03/17 08:40:15;;;;;;;;;;;;;;;19.86;30.58;101639.17;103123;1314;61378;-82
2023/03/17 08:42:43;;;;;;;;;;;;;;;19.87;30.65;101640.68;103429;1311;61208;-82
2023/03/17 08:45:09;;;;;;;;;;;;;;;19.89;30.55;101639.88;102925;1316;61511;-82
2023/03/17 08:47:37;;;;;;;;;;;;;;;19.92;30.56;101639.73;103051;1311;73666;-82
2023/03/17 08:50:04;;;;;;;;;;;;;;;19.95;30.59;101639.25;103121;1313;61315;-82
2023/03/17 08:52:29;;;;;;;;;;;;;;;19.98;30.40;101640.14;102896;1311;61269;-82
2023/03/17 08:54:56;;;;;;;;;;;;;;;20.00;30.45;101636.98;102844;1315;61546;-82
2023/03/17 08:57:23;;;;;;;;;;;;;;;20.02;30.41;101629.19;102964;1309;61426;-82
2023/03/17 08:59:49;;;;;;;;;;;;;;;19.96;30.31;101636.52;103094;1311;59877;-83
2023/03/17 09:02:15;;;;;;;;;;;;;;;19.85;30.15;101635.98;102978;1312;59989;-83
2023/03/17 09:05:09;;;;;;;;;;;;;;;19.72;29.94;101631.09;103347;1312;59800;-83
2023/03/17 09:07:34;;;;;;;;;;;;;;;19.61;30.16;101629.90;102659;1318;72928;-84
2023/03/17 09:10:02;;;;;;;;;;;;;;;19.59;30.25;101628.89;102394;1318;61471;-82
2023/03/17 09:12:28;;;;;;;;;;;;;;;19.60;30.40;101622.80;102694;1318;61505;-82
2023/03/17 09:14:55;;;;;;;;;;;;;;;19.61;30.50;101629.15;102555;1318;61138;-83
2023/03/17 09:17:21;;;;;;;;;;;;;;;19.63;30.54;101625.85;102651;1314;61662;-83
2023/03/17 09:19:47;;;;;;;;;;;;;;;19.65;30.58;101627.20;102782;1314;61356;-82
2023/03/17 09:22:13;;;;;;;;;;;;;;;19.68;30.53;101630.77;102947;1316;59759;-82
2023/03/17 09:24:39;;;;;;;;;;;;;;;19.72;30.65;101629.16;102497;1319;61254;-82
2023/03/17 09:27:05;;;;;;;;;;;;;;;19.77;30.64;101624.04;102691;1315;61326;-82
2023/03/17 09:29:32;;;;;;;;;;;;;;;19.81;30.51;101624.06;102730;1315;59483;-82
2023/03/17 09:31:58;;;;;;;;;;;;;;;19.84;30.56;101619.98;102400;1315;74816;-83
2023/03/17 09:34:24;;;;;;;;;;;;;;;19.86;30.53;101621.98;102409;1320;61327;-83
2023/03/17 09:36:50;;;;;;;;;;;;;;;19.89;30.47;101623.07;102553;1314;61443;-83
2023/03/17 09:39:15;;;;;;;;;;;;;;;19.92;30.39;101624.50;102568;1315;61805;-82
2023/03/17 09:41:47;;;;;;;;;;;;;;;19.96;30.37;101621.34;102737;1321;62453;-83
2023/03/17 09:44:25;;;;;;;;;;;;;;;19.98;30.39;101622.25;102764;1311;61360;-82
2023/03/17 09:47:20;;;;;;;;;;;;;;;20.01;30.37;101619.26;102803;1317;61353;-83
2023/03/17 09:49:54;;;;;;;;;;;;;;;20.04;30.42;101616.08;102835;1312;72633;-82
2023/03/17 09:52:24;;;;;;;;;;;;;;;20.05;30.39;101616.54;103060;1311;75843;-84
2023/03/17 09:54:50;;;;;;;;;;;;;;;20.04;30.43;101615.14;102982;1311;61227;-83
2023/03/17 09:57:23;;;;;;;;;;;;;;;20.03;30.45;101610.20;102984;1309;61438;-83
2023/03/17 10:00:00;;;;;;;;;;;;;;;20.02;30.49;101613.12;104029;1309;73596;-83
2023/03/17 10:02:26;;;;;;;;;;;;;;;20.00;30.37;101608.79;103461;1309;75802;-82
2023/03/17 10:04:52;;;;;;;;;;;;;;;19.84;30.30;101613.69;103189;1311;61434;-84
2023/03/17 10:07:22;;;;;;;;;;;;;;;19.69;30.14;101615.02;103407;1311;62187;-81
2023/03/17 10:09:54;;;;;;;;;;;;;;;19.52;30.13;101611.04;103323;1311;73669;-84
2023/03/17 10:12:20;;;;;;;;;;;;;;;19.46;30.27;101611.71;103282;1309;74558;-85
2023/03/17 10:15:02;;;;;;;;;;;;;;;19.40;30.11;101608.13;103424;1309;60857;-84
2023/03/17 10:17:33;;;;;;;;;;;;;;;19.24;29.93;101608.03;104283;1312;61098;-84
2023/03/17 10:20:03;;;;;;;;;;;;;;;19.14;30.05;101606.05;104427;1309;73683;-85
2023/03/17 10:22:40;;;;;;;;;;;;;;;19.15;30.06;101603.83;104456;1311;74699;-83
2023/03/17 10:25:18;;;;;;;;;;;;;;;19.22;30.14;101609.36;104441;1311;60227;-82
2023/03/17 10:28:11;;;;;;;;;;;;;;;19.31;30.15;101605.56;104008;1312;60489;-83
2023/03/17 10:30:38;;;;;;;;;;;;;;;19.37;30.24;101599.54;102924;1314;71166;-83
2023/03/17 10:33:07;;;;;;;;;;;;;;;19.41;30.16;101595.02;102969;1314;74510;-84
2023/03/17 10:35:34;;;;;;;;;;;;;;;19.45;30.12;101599.48;103099;1311;61381;-83
2023/03/17 10:38:00;;;;;;;;;;;;;;;19.48;29.94;101595.41;102831;1312;61347;-83
2023/03/17 10:40:27;;;;;;;;;;;;;;;19.51;30.02;101597.23;102685;1311;61432;-84
2023/03/17 10:42:54;;;;;;;;;;;;;;;19.52;29.98;101598.59;102621;1311;61317;-84
2023/03/17 10:45:26;;;;;;;;;;;;;;;19.52;30.02;101594.80;102842;1314;61442;-84
2023/03/17 10:47:54;;;;;;;;;;;;;;;19.53;29.99;101592.98;102750;1308;61800;-84
2023/03/17 10:50:29;;;;;;;;;;;;;;;19.52;29.86;101593.02;102998;1311;73985;-84
2023/03/17 10:52:59;;;;;;;;;;;;;;;19.49;29.68;101593.20;103075;1310;74141;-84
2023/03/17 10:55:26;;;;;;;;;;;;;;;19.42;29.58;101589.63;103146;1311;61393;-84
2023/03/17 10:58:02;;;;;;;;;;;;;;;19.41;29.57;101584.16;103148;1311;61244;-84
2023/03/17 11:00:28;;;;;;;;;;;;;;;19.41;29.53;101584.47;103360;1314;71890;-84
2023/03/17 11:02:59;;;;;;;;;;;;;;;19.37;29.39;101579.68;103574;1311;61850;-84
2023/03/17 11:05:26;;;;;;;;;;;;;;;19.26;29.31;101580.59;103975;1314;60908;-82
2023/03/17 11:08:06;;;;;;;;;;;;;;;19.15;29.37;101579.76;103809;1311;60422;-85
2023/03/17 11:10:33;;;;;;;;;;;;;;;19.06;29.27;101579.52;103822;1311;73774;-83
2023/03/17 11:13:00;;;;;;;;;;;;;;;18.98;29.29;101572.76;103447;1314;76715;-82
2023/03/17 11:15:28;;;;;;;;;;;;;;;18.99;29.35;101573.43;103417;1310;61329;-85
2023/03/17 11:17:56;;;;;;;;;;;;;;;19.05;29.41;101573.66;103118;1311;61280;-82
2023/03/17 11:20:33;;;;;;;;;;;;;;;19.03;29.21;101568.77;103091;1312;73562;-82
2023/03/17 11:23:07;;;;;;;;;;;;;;;19.00;29.33;101564.11;103183;1313;74583;-83
2023/03/17 11:25:33;;;;;;;;;;;;;;;19.02;29.32;101563.45;103010;1309;61470;-82
2023/03/17 11:28:02;;;;;;;;;;;;;;;19.07;29.41;101561.58;102827;1311;61260;-82
2023/03/17 11:30:34;;;;;;;;;;;;;;;19.13;29.36;101558.48;104138;1313;71344;-82
2023/03/17 11:33:17;;;;;;;;;;;;;;;19.17;29.47;101558.22;103099;1308;75517;-81
2023/03/17 11:35:53;;;;;;;;;;;;;;;19.23;29.44;101554.91;102982;1308;61457;-82
2023/03/17 11:38:19;;;;;;;;;;;;;;;19.27;29.42;101550.77;103999;1311;61430;-82
2023/03/17 11:41:03;;;;;;;;;;;;;;;19.27;29.45;101551.12;102878;1311;64526;-81
2023/03/17 11:43:52;;;;;;;;;;;;;;;19.29;29.44;101543.56;102748;1311;75804;-82
2023/03/17 11:46:39;;;;;;;;;;;;;;;19.31;29.37;101538.79;102866;1310;62136;-82
2023/03/17 11:49:11;;;;;;;;;;;;;;;19.31;29.25;101537.17;103030;1309;61355;-83
2023/03/17 11:51:55;;;;;;;;;;;;;;;19.32;29.30;101536.41;103268;1311;71645;-82
2023/03/17 11:54:34;;;;;;;;;;;;;;;19.36;29.20;101531.20;103013;1310;74583;-83
2023/03/17 11:57:00;;;;;;;;;;;;;;;19.40;29.19;101530.23;102859;1311;61339;-83
2023/03/17 11:59:28;;;;;;;;;;;;;;;19.44;29.13;101531.67;102984;1311;61310;-82
2023/03/17 12:01:56;;;;;;;;;;;;;;;19.33;28.83;101528.65;103190;1312;72604;-83
2023/03/17 12:04:49;;;;;;;;;;;;;;;19.01;28.75;101529.08;103369;1313;75560;-82
2023/03/17 12:07:20;;;;;;;;;;;;;;;18.69;28.83;101531.52;103111;1317;61185;-83
2023/03/17 12:09:48;;;;;;;;;;;;;;;18.34;28.58;101526.64;102773;1317;61407;-83
2023/03/17 12:12:13;;;;;;;;;;;;;;;17.88;28.70;101529.11;102453;1317;72707;-83
2023/03/17 12:14:45;;;;;;;;;;;;;;;17.75;28.96;101530.20;102460;1317;61789;-83
2023/03/17 12:17:11;;;;;;;;;;;;;;;17.82;29.03;101528.85;102289;1317;61521;-82
2023/03/17 12:19:41;;;;;;;;;;;;;;;17.93;29.14;101530.34;102226;1316;61547;-82
2023/03/17 12:22:07;;;;;;;;;;;;;;;18.02;29.07;101532.23;102033;1320;72424;-82
2023/03/17 12:24:37;;;;;;;;;;;;;;;17.94;29.09;101533.16;102063;1316;61352;-82
2023/03/17 12:27:06;;;;;;;;;;;;;;;18.00;29.25;101529.13;102187;1316;61470;-82